Time;durP1;ratioP1;P1;durP2;ratioP2;P2;SDS_P1;SDS_P2;PMS_P1;PMS_P2;Temp;Humidity;BMP_temperature;BMP_pressure;BME280_temperature;BME280_humidity;BME280_pressure;Samples;Min_cycle;Max_cycle;Signal;HPM_P1;HPM_P2
2022/05/10 00:00:39;;;;;;;3.95;2.20;;;;;;;17.71;58.33;97205.72;10518595;28;20485;-24
2022/05/10 00:05:42;;;;;;;3.20;2.20;;;;;;;17.71;58.24;97210.78;10533910;28;20040;-23
2022/05/10 00:10:43;;;;;;;1.77;1.60;;;;;;;17.67;58.36;97197.25;10537690;28;20035;-23
2022/05/10 00:15:44;;;;;;;3.90;1.85;;;;;;;17.65;58.05;97198.09;10533178;28;20040;-23
2022/05/10 00:20:46;;;;;;;3.63;2.20;;;;;;;17.68;57.96;97205.72;10502298;28;20131;-24
2022/05/10 00:25:46;;;;;;;5.55;4.80;;;;;;;17.86;63.29;97203.38;10564231;28;20043;-23
2022/05/10 00:30:47;;;;;;;5.33;4.83;;;;;;;17.92;63.07;97203.44;10575055;28;20032;-24
2022/05/10 00:35:47;;;;;;;2.60;2.40;;;;;;;17.93;60.24;97200.06;10498741;28;20029;-25
2022/05/10 00:40:48;;;;;;;2.88;2.30;;;;;;;17.79;58.55;97183.88;10490717;28;20111;-23
2022/05/10 00:45:59;;;;;;;2.93;1.67;;;;;;;17.75;58.17;97187.22;10491127;28;20025;-24
2022/05/10 00:51:20;;;;;;;2.13;1.92;;;;;;;17.72;58.35;97180.44;10498176;28;20044;-24
2022/05/10 00:56:49;;;;;;;1.90;1.77;;;;;;;17.68;58.16;97180.38;10479884;28;20433;-24
2022/05/10 01:01:57;;;;;;;1.88;1.60;;;;;;;17.62;58.22;97172.72;10557266;28;20032;-25
2022/05/10 01:07:06;;;;;;;2.75;1.75;;;;;;;17.68;58.04;97175.31;10543300;28;20033;-23
2022/05/10 01:12:17;;;;;;;1.70;1.60;;;;;;;17.66;57.98;97177.84;10501989;28;20044;-23
2022/05/10 01:17:18;;;;;;;3.28;2.22;;;;;;;17.69;58.23;97174.50;10506959;28;20040;-24
2022/05/10 01:22:54;;;;;;;5.13;4.63;;;;;;;17.82;62.44;97163.66;10554802;28;20386;-23
2022/05/10 01:28:18;;;;;;;5.43;3.97;;;;;;;17.94;63.41;97151.09;10498384;28;20029;-23
2022/05/10 01:33:32;;;;;;;2.63;2.42;;;;;;;17.90;59.94;97149.38;10499710;28;20457;-24
2022/05/10 01:38:57;;;;;;;2.28;2.03;;;;;;;17.75;58.32;97137.41;10504408;28;20441;-23
2022/05/10 01:44:18;;;;;;;2.80;1.83;;;;;;;17.73;57.98;97146.69;10539499;28;20078;-24
2022/05/10 01:49:37;;;;;;;2.70;2.10;;;;;;;17.69;58.03;97139.03;10512245;28;20461;-24
2022/05/10 01:54:40;;;;;;;2.30;2.10;;;;;;;17.61;58.07;97135.59;10512190;28;20052;-25
2022/05/10 01:59:47;;;;;;;2.10;1.90;;;;;;;17.66;58.03;97134.78;10520885;28;20106;-24
2022/05/10 02:04:54;;;;;;;2.13;1.92;;;;;;;17.67;57.93;97133.13;10537921;28;20485;-23
2022/05/10 02:10:02;;;;;;;1.60;1.50;;;;;;;17.65;57.97;97139.84;10499077;28;20475;-24
2022/05/10 02:15:24;;;;;;;2.08;1.88;;;;;;;17.65;58.04;97145.75;10496267;28;20044;-24
2022/05/10 02:20:44;;;;;;;4.07;3.67;;;;;;;17.82;62.76;97141.69;10495860;28;20211;-23
2022/05/10 02:25:51;;;;;;;4.47;3.65;;;;;;;17.88;62.96;97135.84;10520959;28;20040;-25
2022/05/10 02:30:57;;;;;;;3.28;2.70;;;;;;;17.89;60.22;97127.41;10537715;28;20077;-24
2022/05/10 02:35:59;;;;;;;1.80;1.70;;;;;;;17.75;58.41;97123.91;10502496;28;20111;-23
2022/05/10 02:41:14;;;;;;;2.42;2.08;;;;;;;17.74;58.00;97132.34;10494641;28;20033;-24
2022/05/10 02:46:16;;;;;;;2.20;2.00;;;;;;;17.71;58.06;97132.31;10493809;28;20527;-23
2022/05/10 02:51:18;;;;;;;2.08;1.85;;;;;;;17.68;57.98;97137.34;10494329;28;20457;-23
2022/05/10 02:56:24;;;;;;;1.95;1.77;;;;;;;17.67;57.94;97135.66;10493595;28;20037;-23
2022/05/10 03:01:31;;;;;;;;;;;;;;;17.69;58.08;97127.25;10527698;28;20084;-24
2022/05/10 03:06:32;;;;;;;2.20;2.00;;;;;;;17.68;58.03;97122.97;10534281;28;19912;-23
2022/05/10 03:11:35;;;;;;;1.95;1.77;;;;;;;17.64;58.04;97113.69;10501916;28;20502;-23
2022/05/10 03:16:36;;;;;;;2.97;2.72;;;;;;;17.73;60.99;97118.00;10493639;28;20032;-24
2022/05/10 03:21:37;;;;;;;3.95;3.65;;;;;;;17.88;62.52;97118.97;10536386;28;20039;-24
2022/05/10 03:26:45;;;;;;;3.53;3.22;;;;;;;17.94;62.36;97110.56;10509263;28;20403;-22
2022/05/10 03:31:46;;;;;;;3.28;2.22;;;;;;;17.83;58.73;97124.84;10500082;28;20407;-25
2022/05/10 03:36:48;;;;;;;2.13;1.92;;;;;;;17.77;58.29;97124.78;10535123;28;20032;-23
2022/05/10 03:41:50;;;;;;;1.60;1.50;;;;;;;17.74;57.96;97117.16;10498926;28;20415;-23
2022/05/10 03:46:50;;;;;;;1.87;1.77;;;;;;;17.74;57.48;97117.16;10491656;28;20024;-24
2022/05/10 03:51:53;;;;;;;1.75;1.65;;;;;;;17.73;58.00;97110.41;10492116;28;20790;-24
2022/05/10 03:56:54;;;;;;;1.92;1.83;;;;;;;17.72;57.89;97113.72;10492515;28;20089;-23
2022/05/10 04:01:54;;;;;;;1.80;1.70;;;;;;;17.70;57.98;97110.34;10518865;28;20691;-23
2022/05/10 04:06:55;;;;;;;2.43;2.07;;;;;;;17.71;57.88;97101.91;10491629;28;20127;-24
2022/05/10 04:11:56;;;;;;;1.80;1.70;;;;;;;17.73;58.03;97112.94;10497061;28;20042;-23
2022/05/10 04:16:56;;;;;;;3.40;2.63;;;;;;;17.85;62.67;97105.44;10549829;28;20412;-23
2022/05/10 04:21:57;;;;;;;4.55;3.03;;;;;;;17.94;63.00;97103.81;10510512;28;20115;-24
2022/05/10 04:26:58;;;;;;;2.42;2.22;;;;;;;17.89;59.03;97091.94;10513840;28;20040;-23
2022/05/10 04:31:58;;;;;;;1.95;1.75;;;;;;;17.82;58.17;97105.41;10490990;28;20043;-23
2022/05/10 04:36:58;;;;;;;1.90;1.80;;;;;;;17.80;57.97;97107.06;10493521;28;20398;-23
2022/05/10 04:41:59;;;;;;;2.10;1.90;;;;;;;17.78;57.90;97109.59;10509074;28;20025;-23
2022/05/10 04:46:59;;;;;;;3.57;2.60;;;;;;;17.72;59.78;97101.06;10512529;28;20485;-25
2022/05/10 04:51:59;;;;;;;7.17;4.37;;;;;;;17.63;60.20;97103.53;10510970;28;20615;-24
2022/05/10 04:57:00;;;;;;;5.00;4.60;;;;;;;17.54;59.95;97100.91;10511906;28;20031;-24
2022/05/10 05:02:00;;;;;;;4.00;3.60;;;;;;;17.57;58.99;97104.31;10513414;28;20195;-24
2022/05/10 05:07:00;;;;;;;8.82;2.90;;;;;;;17.70;58.28;97115.41;10502863;28;20032;-23
2022/05/10 05:12:01;;;;;;;9.27;5.10;;;;;;;17.81;60.61;97123.94;10492056;28;20078;-25
2022/05/10 05:17:01;;;;;;;9.07;6.35;;;;;;;17.84;61.44;97129.06;10489716;28;20040;-24
2022/05/10 05:22:02;;;;;;;4.65;3.00;;;;;;;17.82;58.56;97130.72;10517510;28;20023;-23
2022/05/10 05:27:03;;;;;;;5.82;4.15;;;;;;;17.73;59.79;97131.47;10501236;28;20093;-23
2022/05/10 05:32:09;;;;;;;4.13;3.13;;;;;;;17.76;58.32;97130.66;10492822;28;20491;-23
2022/05/10 05:42:29;;;;;;;3.17;2.60;;;;;;;17.67;57.77;97131.41;10496501;28;20043;-25
2022/05/10 05:47:29;;;;;;;2.65;2.33;;;;;;;17.74;57.91;97139.94;10513061;28;20412;-23
2022/05/10 05:52:32;;;;;;;2.63;2.38;;;;;;;17.70;58.06;97130.59;10540994;28;20037;-23
2022/05/10 05:57:32;;;;;;;2.35;1.98;;;;;;;17.71;57.96;97137.38;10499529;28;20096;-23
2022/05/10 06:02:33;;;;;;;2.95;2.40;;;;;;;17.74;58.07;97142.47;10522263;28;20085;-25
2022/05/10 06:07:33;;;;;;;9.30;5.47;;;;;;;17.85;62.12;97146.81;10496574;28;20032;-24
2022/05/10 06:12:34;;;;;;;6.95;5.20;;;;;;;17.93;62.22;97144.34;10494961;28;20035;-25
2022/05/10 06:17:42;;;;;;;4.93;3.17;;;;;;;17.91;60.40;97141.78;10495881;28;20028;-24
2022/05/10 06:22:44;;;;;;;3.42;2.40;;;;;;;17.82;58.71;97148.47;10500132;28;20028;-24
2022/05/10 06:27:49;;;;;;;2.67;2.47;;;;;;;17.78;58.08;97144.19;10495410;28;20033;-25
2022/05/10 06:32:51;;;;;;;2.55;2.25;;;;;;;17.75;57.97;97152.59;10494284;28;20032;-23
2022/05/10 06:43:13;;;;;;;2.65;2.20;;;;;;;17.73;58.03;97150.91;10493145;28;20420;-24
2022/05/10 06:48:17;;;;;;;2.15;1.95;;;;;;;17.74;57.95;97145.00;10492691;28;20021;-24
2022/05/10 06:53:17;;;;;;;2.53;2.33;;;;;;;17.74;57.82;97137.41;10493786;28;20032;-24
2022/05/10 06:58:17;;;;;;;3.10;2.00;;;;;;;17.63;57.93;97118.72;10501081;28;20409;-23
2022/05/10 07:03:28;;;;;;;6.60;4.00;;;;;;;17.78;61.67;97129.00;10521740;28;20028;-24
2022/05/10 07:08:29;;;;;;;4.20;3.80;;;;;;;17.92;62.76;97133.34;10493224;28;20024;-23
2022/05/10 07:13:30;;;;;;;2.90;2.70;;;;;;;17.94;60.22;97130.81;10493107;28;20033;-23
2022/05/10 07:18:32;;;;;;;3.67;2.58;;;;;;;17.76;58.71;97125.59;10492912;28;20035;-23
2022/05/10 07:23:32;;;;;;;2.97;2.53;;;;;;;17.70;58.17;97113.75;10534838;28;20020;-25
2022/05/10 07:28:34;;;;;;;2.55;2.28;;;;;;;17.74;58.30;97123.03;10535259;28;20035;-23
2022/05/10 07:33:34;;;;;;;2.37;2.10;;;;;;;17.74;58.20;97117.16;10509163;28;20040;-24
2022/05/10 07:38:36;;;;;;;2.05;1.85;;;;;;;17.66;57.82;97103.56;10492977;28;20036;-23
2022/05/10 07:43:38;;;;;;;2.78;2.30;;;;;;;17.73;58.29;97115.47;10492474;28;20503;-23
2022/05/10 07:48:39;;;;;;;3.08;2.70;;;;;;;17.72;58.23;97118.78;10492585;28;20040;-23
2022/05/10 07:53:41;;;;;;;4.40;2.33;;;;;;;17.68;57.69;97112.03;10491846;28;20089;-24
2022/05/10 07:58:42;;;;;;;4.57;3.20;;;;;;;17.73;58.35;97120.53;10501637;28;20037;-24
2022/05/10 08:03:43;;;;;;;4.10;3.70;;;;;;;17.90;62.84;97119.00;10518872;28;20185;-24
2022/05/10 08:08:44;;;;;;;5.40;3.53;;;;;;;17.97;62.73;97125.78;10491375;28;20048;-24
2022/05/10 08:13:44;;;;;;;3.08;2.78;;;;;;;17.91;59.78;97115.63;10491364;28;20036;-24
2022/05/10 08:18:48;;;;;;;3.33;3.00;;;;;;;17.81;58.55;97119.75;10491642;28;20032;-23
2022/05/10 08:23:52;;;;;;;3.70;2.65;;;;;;;17.76;58.35;97115.47;10526423;28;20282;-24
2022/05/10 08:28:52;;;;;;;2.72;2.25;;;;;;;17.74;58.41;97119.69;10491474;28;20032;-24
2022/05/10 08:33:52;;;;;;;3.90;3.60;;;;;;;17.73;58.36;97118.00;10508409;28;20036;-24
2022/05/10 08:38:54;;;;;;;4.90;4.03;;;;;;;17.72;58.33;97116.25;10522563;28;20347;-23
2022/05/10 08:44:11;;;;;;;3.72;3.22;;;;;;;17.70;58.34;97110.34;10490613;28;20765;-25
2022/05/10 08:49:26;;;;;;;2.72;2.50;;;;;;;17.72;58.51;97113.72;10492462;28;20044;-23
2022/05/10 08:54:29;;;;;;;4.43;2.80;;;;;;;17.68;58.15;97107.78;10504956;28;20040;-24
2022/05/10 08:59:39;;;;;;;4.88;3.75;;;;;;;17.87;62.96;97111.34;10532578;28;20040;-23
2022/05/10 09:04:51;;;;;;;3.97;3.58;;;;;;;17.96;63.05;97113.94;10531037;28;20028;-24
2022/05/10 09:10:33;;;;;;;2.97;2.67;;;;;;;17.96;59.49;97119.00;10519659;28;20033;-25
2022/05/10 09:15:38;;;;;;;2.72;2.53;;;;;;;17.83;58.71;97105.41;10490897;28;20486;-23
2022/05/10 09:20:48;;;;;;;2.80;2.50;;;;;;;17.77;58.41;97107.03;10534669;28;20413;-23
2022/05/10 09:25:49;;;;;;;3.55;2.45;;;;;;;17.77;58.52;97104.50;10527512;28;20040;-24
2022/05/10 09:36:12;;;;;;;3.08;2.50;;;;;;;17.74;58.21;97099.44;10535340;28;20039;-25
2022/05/10 09:41:29;;;;;;;2.40;2.20;;;;;;;17.74;58.33;97101.97;10509143;28;20020;-25
2022/05/10 09:46:34;;;;;;;2.72;2.38;;;;;;;17.74;58.27;97104.50;10496144;28;20591;-23
2022/05/10 09:51:36;;;;;;;3.10;2.80;;;;;;;17.73;58.46;97097.72;10497111;28;20414;-24
2022/05/10 09:56:40;;;;;;;3.80;3.40;;;;;;;17.82;62.18;97100.34;10528617;28;20031;-23
2022/05/10 10:01:49;;;;;;;4.28;3.88;;;;;;;17.97;63.16;97090.31;10533447;28;20040;-23
2022/05/10 10:07:06;;;;;;;3.25;2.95;;;;;;;17.97;59.70;97090.31;10496625;28;20289;-23
2022/05/10 10:12:30;;;;;;;3.08;2.88;;;;;;;17.88;58.81;97095.31;10495796;28;20060;-24
2022/05/10 10:17:36;;;;;;;2.28;2.08;;;;;;;17.80;58.60;97096.91;10496188;28;20036;-24
2022/05/10 10:22:48;;;;;;;3.75;2.63;;;;;;;17.75;58.29;97098.59;10530826;28;20024;-25
2022/05/10 10:27:57;;;;;;;4.18;2.30;;;;;;;17.75;58.27;97094.34;10495415;28;20028;-24
2022/05/10 10:33:05;;;;;;;5.10;2.85;;;;;;;17.73;58.44;97090.97;10495165;28;20055;-23
2022/05/10 10:38:14;;;;;;;3.00;2.67;;;;;;;17.76;58.54;97090.16;10495163;28;20033;-25
2022/05/10 10:43:20;;;;;;;6.60;2.55;;;;;;;17.77;59.77;97074.13;10494404;28;20028;-25
2022/05/10 10:48:45;;;;;;;33.08;4.85;;;;;;;17.77;60.72;97080.03;10502453;28;20031;-24
2022/05/10 10:53:46;;;;;;;8.25;4.10;;;;;;;17.81;61.93;97071.63;10505989;28;20036;-23
2022/05/10 10:58:57;;;;;;;9.23;4.53;;;;;;;18.01;61.94;97065.00;10505488;28;20044;-23
2022/05/10 11:04:18;;;;;;;15.15;8.60;;;;;;;18.06;60.67;97065.03;10534552;28;20056;-24
2022/05/10 11:09:56;;;;;;;13.60;7.55;;;;;;;17.94;58.83;97064.97;10521399;28;20032;-24
2022/05/10 11:15:28;;;;;;;16.92;12.18;;;;;;;17.81;58.78;97053.03;10513039;28;20048;-24
2022/05/10 11:20:52;;;;;;;22.77;17.35;;;;;;;17.80;58.65;97048.81;10535518;28;20070;-24
2022/05/10 11:26:01;;;;;;;16.88;11.52;;;;;;;17.76;58.76;97045.41;10492625;28;20036;-23
2022/05/10 11:31:16;;;;;;;14.25;10.63;;;;;;;17.76;58.69;97039.50;10492352;28;20047;-23
2022/05/10 11:36:38;;;;;;;10.73;8.93;;;;;;;17.75;58.66;97040.34;10532851;28;20044;-24
2022/05/10 11:41:45;;;;;;;18.02;15.25;;;;;;;17.76;59.00;97032.72;10492128;28;20047;-23
2022/05/10 11:47:04;;;;;;;26.42;16.77;;;;;;;17.77;58.73;97031.06;10500016;28;20032;-23
2022/05/10 11:52:19;;;;;;;29.50;21.23;;;;;;;17.84;62.81;97027.75;10534548;28;20036;-25
2022/05/10 11:57:23;;;;;;;;;;;;;;;18.02;64.13;97008.47;10495066;28;20036;-24
2022/05/10 12:02:29;;;;;;;15.68;12.57;;;;;;;18.05;61.91;97005.94;10514860;28;19959;-22
2022/05/10 12:07:44;;;;;;;13.77;8.95;;;;;;;17.96;59.86;97012.63;10491141;28;20311;-25
2022/05/10 12:12:47;;;;;;;20.95;14.15;;;;;;;17.89;58.96;97006.69;10493476;28;20089;-26
2022/05/10 12:23:10;;;;;;;15.10;10.30;;;;;;;17.85;58.63;96994.84;10547352;28;20406;-23
2022/05/10 12:28:36;;;;;;;15.25;8.55;;;;;;;17.81;60.39;96992.25;10497132;28;20043;-23
2022/05/10 12:33:37;;;;;;;17.13;11.07;;;;;;;17.77;59.69;96970.28;10495846;28;20090;-25
2022/05/10 12:38:44;;;;;;;14.95;8.23;;;;;;;17.76;59.36;96978.72;10468503;28;20028;-23
2022/05/10 12:44:08;;;;;;;13.60;5.97;;;;;;;17.75;59.56;96970.25;10478254;28;20139;-25
2022/05/10 12:49:19;;;;;;;6.82;4.63;;;;;;;17.75;60.13;96977.03;10492647;28;20032;-23
2022/05/10 12:54:35;;;;;;;27.17;14.15;;;;;;;18.05;63.03;96962.00;10484527;28;20507;-23
2022/05/10 12:59:41;;;;;;;12.85;8.18;;;;;;;18.12;60.77;96954.47;10496586;28;20157;-23
2022/05/10 13:04:48;;;;;;;10.57;5.50;;;;;;;18.10;59.92;96962.91;10496720;28;20415;-23
2022/05/10 13:10:03;;;;;;;9.57;5.55;;;;;;;18.15;59.07;96953.63;10490017;28;20036;-23
2022/05/10 13:15:14;;;;;;;5.53;4.93;;;;;;;18.17;59.37;96942.66;10482653;28;20078;-23
2022/05/10 13:20:17;;;;;;;8.63;5.18;;;;;;;18.18;59.03;96934.19;10498051;28;20032;-20
2022/05/10 13:25:36;;;;;;;7.18;4.70;;;;;;;18.30;59.04;96933.44;10472033;28;20510;-19
2022/05/10 13:30:40;;;;;;;6.57;4.35;;;;;;;18.22;58.45;96930.00;10472661;28;20072;-24
2022/05/10 13:35:41;;;;;;;6.55;5.50;;;;;;;18.12;58.42;96924.06;10482418;28;20032;-24
2022/05/10 13:40:48;;;;;;;6.82;4.47;;;;;;;18.09;58.38;96918.13;10494514;28;20055;-23
2022/05/10 13:45:51;;;;;;;7.47;5.10;;;;;;;18.10;58.43;96924.88;10494574;28;20036;-23
2022/05/10 13:50:56;;;;;;;13.27;10.32;;;;;;;18.14;61.27;96912.22;10484392;28;20294;-24
2022/05/10 13:55:57;;;;;;;15.98;9.55;;;;;;;18.22;61.83;96910.59;10481087;28;20148;-23
2022/05/10 14:00:59;;;;;;;8.82;5.32;;;;;;;18.16;58.79;96914.78;10496082;28;20074;-23
2022/05/10 14:06:09;;;;;;;6.80;5.35;;;;;;;18.11;58.40;96908.84;10458983;28;20045;-24
2022/05/10 14:11:19;;;;;;;6.22;4.65;;;;;;;18.10;58.34;96904.63;10482916;28;20032;-24
2022/05/10 14:16:35;;;;;;;7.95;5.13;;;;;;;18.05;58.65;96896.13;10494659;28;20044;-24
2022/05/10 14:21:36;;;;;;;5.60;4.73;;;;;;;18.00;58.47;96887.69;10493890;28;20036;-24
2022/05/10 14:26:42;;;;;;;6.15;4.97;;;;;;;18.02;58.57;96899.53;10467555;28;20519;-23
2022/05/10 14:31:53;;;;;;;5.53;4.82;;;;;;;17.91;58.60;96888.47;10495802;28;20045;-23
2022/05/10 14:36:53;;;;;;;6.85;5.47;;;;;;;17.99;58.35;96899.50;10477007;28;20052;-24
2022/05/10 14:41:54;;;;;;;9.07;4.67;;;;;;;17.99;58.70;96889.34;10453414;28;20047;-23
2022/05/10 14:46:57;;;;;;;21.67;9.57;;;;;;;18.11;60.69;96891.09;10453060;28;20131;-24
2022/05/10 14:51:58;;;;;;;20.83;9.18;;;;;;;18.26;63.43;96886.94;10453523;28;20033;-23
2022/05/10 14:57:00;;;;;;;6.60;6.00;;;;;;;18.16;58.93;96880.13;10453041;28;20029;-23
2022/05/10 15:02:19;;;;;;;5.95;4.47;;;;;;;18.02;58.33;96865.72;10489339;28;20382;-23
2022/05/10 15:07:21;;;;;;;12.38;6.28;;;;;;;18.04;58.64;96869.09;10459006;28;20040;-24
2022/05/10 15:22:59;;;;;;;4.95;3.92;;;;;;;17.94;58.44;96858.13;10471021;28;20035;-24
2022/05/10 15:28:01;;;;;;;6.63;4.70;;;;;;;17.90;58.58;96853.03;10493611;28;20051;-20
2022/05/10 15:33:02;;;;;;;4.55;4.15;;;;;;;17.93;58.51;96855.56;10469628;28;20295;-23
2022/05/10 15:38:03;;;;;;;7.70;4.72;;;;;;;17.91;58.65;96857.25;10453896;28;20025;-23
2022/05/10 15:43:03;;;;;;;16.70;5.25;;;;;;;18.03;61.50;96852.22;10492137;28;20036;-25
2022/05/10 15:48:05;;;;;;;11.33;5.73;;;;;;;18.21;62.23;96848.06;10483448;28;20024;-23
2022/05/10 15:53:05;;;;;;;7.70;4.93;;;;;;;18.21;59.49;96852.28;10487787;28;20303;-23
2022/05/10 15:58:06;;;;;;;6.40;4.23;;;;;;;18.09;58.34;96847.19;10456206;28;20085;-23
2022/05/10 16:03:08;;;;;;;5.05;4.50;;;;;;;18.04;58.33;96849.72;10450355;28;20045;-24
2022/05/10 16:08:11;;;;;;;8.73;5.30;;;;;;;18.02;59.54;96845.47;10449706;28;20482;-24
2022/05/10 16:13:14;;;;;;;12.68;5.07;;;;;;;17.97;58.53;96821.78;10454970;28;20504;-21
2022/05/10 16:18:22;;;;;;;10.43;4.82;;;;;;;17.99;58.48;96837.88;10490285;28;20455;-24
2022/05/10 16:23:22;;;;;;;6.35;4.05;;;;;;;17.98;58.47;96828.59;10487260;28;20025;-24
2022/05/10 16:33:42;;;;;;;4.88;4.38;;;;;;;18.01;58.24;96828.56;10491628;28;20335;-24
2022/05/10 16:38:42;;;;;;;13.10;7.55;;;;;;;18.08;62.37;96830.28;10485744;28;20044;-23
2022/05/10 16:43:42;;;;;;;17.27;7.77;;;;;;;18.27;63.65;96822.75;10495095;28;20039;-22
2022/05/10 16:48:45;;;;;;;7.90;5.90;;;;;;;18.31;61.36;96813.47;10489222;28;20040;-24
2022/05/10 16:53:45;;;;;;;8.07;4.90;;;;;;;18.21;59.19;96809.19;10455711;28;20037;-24
2022/05/10 16:58:46;;;;;;;8.57;4.03;;;;;;;18.14;58.55;96815.09;10469808;28;20041;-23
2022/05/10 17:03:46;;;;;;;13.90;6.70;;;;;;;18.05;59.36;96800.72;10474805;28;20040;-22
2022/05/10 17:08:48;;;;;;;5.78;4.55;;;;;;;18.14;58.41;96817.63;10480023;28;20037;-23
2022/05/10 17:13:50;;;;;;;13.10;7.25;;;;;;;18.27;62.40;96816.81;10485444;28;20040;-23
2022/05/10 17:18:50;;;;;;;12.63;7.35;;;;;;;18.35;62.02;96810.13;10472430;28;20391;-24
2022/05/10 17:23:51;;;;;;;6.72;4.88;;;;;;;18.21;59.03;96812.59;10486910;28;20032;-22
2022/05/10 17:29:00;;;;;;;7.17;4.70;;;;;;;18.14;58.63;96810.03;10464736;28;20094;-22
2022/05/10 17:34:01;;;;;;;7.07;5.03;;;;;;;18.09;58.76;96811.72;10488961;28;20044;-22
2022/05/10 17:39:02;;;;;;;8.43;6.53;;;;;;;18.28;61.79;96808.38;10490773;28;20410;-23
2022/05/10 17:44:03;;;;;;;7.53;5.40;;;;;;;18.32;60.03;96810.13;10495991;28;20028;-22
2022/05/10 17:49:05;;;;;;;8.35;5.50;;;;;;;18.07;60.58;96804.09;10488210;28;20025;-23
2022/05/10 17:54:06;;;;;;;6.72;4.65;;;;;;;18.13;58.92;96818.47;10483787;28;20244;-24
2022/05/10 17:59:08;;;;;;;7.80;4.90;;;;;;;18.06;58.78;96816.75;10471653;28;20111;-22
2022/05/10 18:04:13;;;;;;;9.50;5.85;;;;;;;18.24;61.71;96814.28;10480814;28;20024;-22
2022/05/10 18:09:14;;;;;;;5.23;4.73;;;;;;;18.29;59.64;96823.63;10483566;28;20120;-22
2022/05/10 18:14:14;;;;;;;8.82;4.70;;;;;;;18.14;58.95;96810.03;10483906;28;20123;-22
2022/05/10 18:19:15;;;;;;;5.60;4.32;;;;;;;18.08;58.84;96815.91;10494764;28;20040;-24
2022/05/10 18:24:15;;;;;;;10.07;4.50;;;;;;;18.06;59.08;96819.28;10477914;28;20024;-22
2022/05/10 18:29:16;;;;;;;7.37;5.20;;;;;;;18.24;61.60;96826.97;10471665;28;20058;-22
2022/05/10 18:34:16;;;;;;;7.17;4.20;;;;;;;18.32;59.90;96825.34;10465706;28;20295;-23
2022/05/10 18:39:17;;;;;;;12.20;4.72;;;;;;;18.20;59.28;96830.31;10470034;28;20068;-23
2022/05/10 18:44:17;;;;;;;5.30;4.13;;;;;;;18.15;58.61;96837.91;10467407;28;20583;-23
2022/05/10 18:49:18;;;;;;;4.77;4.37;;;;;;;18.13;58.39;96841.28;10466816;28;20039;-22
2022/05/10 18:54:18;;;;;;;9.45;5.47;;;;;;;18.13;60.97;96841.28;10469070;28;20326;-23
2022/05/10 18:59:19;;;;;;;6.90;5.83;;;;;;;18.33;64.54;96832.09;10456878;28;20064;-23
2022/05/10 19:04:19;;;;;;;6.25;4.20;;;;;;;18.25;59.00;96842.16;10448179;28;20380;-22
2022/05/10 19:09:20;;;;;;;5.80;3.83;;;;;;;18.18;58.56;96844.69;10461756;28;20414;-24
2022/05/10 19:14:22;;;;;;;4.63;4.20;;;;;;;18.13;58.57;96841.28;10484077;28;20044;-23
2022/05/10 19:19:24;;;;;;;5.30;4.15;;;;;;;18.12;58.84;96842.13;10458820;28;20037;-23
2022/05/10 19:24:25;;;;;;;7.82;5.47;;;;;;;18.19;61.58;96851.44;10468433;28;20025;-22
2022/05/10 19:29:27;;;;;;;7.30;4.97;;;;;;;18.34;63.22;96851.53;10488994;28;20418;-22
2022/05/10 19:34:28;;;;;;;4.88;4.03;;;;;;;18.23;58.93;96861.59;10469923;28;20091;-23
2022/05/10 19:39:28;;;;;;;4.70;3.72;;;;;;;18.16;58.71;96866.66;10447238;28;20384;-22
2022/05/10 19:44:30;;;;;;;4.57;4.13;;;;;;;18.11;58.51;96870.84;10465513;28;20528;-24
2022/05/10 19:49:34;;;;;;;4.07;3.78;;;;;;;18.06;58.34;96877.56;10466319;28;20287;-22
2022/05/10 19:54:34;;;;;;;6.22;4.20;;;;;;;18.10;58.57;96879.28;10469615;28;20498;-22
2022/05/10 19:59:35;;;;;;;5.63;4.73;;;;;;;18.32;61.60;96883.63;10491885;28;20044;-23
2022/05/10 20:10:08;;;;;;;4.63;4.07;;;;;;;18.15;58.26;96873.38;10462593;28;20406;-23
2022/05/10 20:15:09;;;;;;;5.40;4.13;;;;;;;18.18;58.17;96887.75;10479820;28;20033;-24
2022/05/10 20:20:11;;;;;;;4.35;3.95;;;;;;;18.15;57.96;96880.16;10464138;28;20115;-23
2022/05/10 20:25:13;;;;;;;3.75;3.38;;;;;;;18.13;58.04;96880.13;10468899;28;20032;-23
2022/05/10 20:30:15;;;;;;;7.55;5.07;;;;;;;18.29;65.29;96891.16;10468983;28;20445;-23
2022/05/10 20:35:18;;;;;;;6.03;4.28;;;;;;;18.33;60.72;96885.31;10469023;28;20123;-22
2022/05/10 20:40:21;;;;;;;4.22;3.60;;;;;;;18.23;58.55;96886.06;10469507;28;20047;-23
2022/05/10 20:45:22;;;;;;;3.97;3.58;;;;;;;18.15;58.25;96877.63;10469250;28;20029;-23
2022/05/10 20:50:23;;;;;;;4.85;4.00;;;;;;;18.08;58.09;96875.91;10470398;28;20317;-23
2022/05/10 20:55:25;;;;;;;4.07;3.67;;;;;;;18.13;58.23;96884.34;10461138;28;20037;-22
2022/05/10 21:00:27;;;;;;;4.10;3.42;;;;;;;18.12;58.20;96882.66;10449504;28;20060;-22
2022/05/10 21:05:28;;;;;;;5.60;4.80;;;;;;;18.30;64.78;96886.16;10481962;28;20033;-24
2022/05/10 21:10:30;;;;;;;4.18;3.80;;;;;;;18.34;60.47;96879.41;10475922;28;20040;-23
2022/05/10 21:15:31;;;;;;;4.13;3.72;;;;;;;18.20;58.66;96881.00;10489968;28;20086;-23
2022/05/10 21:20:50;;;;;;;3.53;3.13;;;;;;;18.16;58.32;96884.38;10460599;28;20045;-23
2022/05/10 21:26:09;;;;;;;3.53;3.22;;;;;;;18.14;58.25;96886.03;10469291;28;20052;-22
2022/05/10 21:31:15;;;;;;;4.43;4.03;;;;;;;18.10;58.22;96884.34;10455865;28;20029;-24
2022/05/10 21:36:16;;;;;;;4.22;3.83;;;;;;;18.10;58.20;96891.94;10455883;28;20072;-23
2022/05/10 21:41:20;;;;;;;6.70;5.03;;;;;;;18.25;62.87;96889.47;10456708;28;20103;-22
2022/05/10 21:46:20;;;;;;;4.25;3.83;;;;;;;18.34;62.45;96887.84;10459478;28;20550;-22
2022/05/10 21:51:21;;;;;;;4.63;3.60;;;;;;;18.22;59.32;96882.69;10496652;28;20039;-22
2022/05/10 21:56:21;;;;;;;5.00;3.87;;;;;;;18.16;58.69;96889.44;10466341;28;20036;-23
2022/05/10 22:01:22;;;;;;;3.95;3.55;;;;;;;18.13;58.49;96884.34;10476512;28;20398;-22
2022/05/10 22:06:22;;;;;;;3.08;2.78;;;;;;;18.10;58.50;96879.28;10494308;28;20394;-22
2022/05/10 22:11:23;;;;;;;3.73;3.43;;;;;;;18.00;58.34;96870.78;10455256;28;20038;-22
2022/05/10 22:16:24;;;;;;;3.63;3.33;;;;;;;18.06;58.41;96883.50;10495097;28;20517;-22
2022/05/10 22:21:24;;;;;;;5.78;4.75;;;;;;;18.26;64.45;96886.94;10465531;28;20060;-23
2022/05/10 22:26:24;;;;;;;4.43;4.03;;;;;;;18.34;62.13;96887.00;10464217;28;20029;-22
2022/05/10 22:31:25;;;;;;;4.03;3.53;;;;;;;18.23;59.32;96881.88;10454231;28;20450;-23
2022/05/10 22:36:26;;;;;;;5.20;3.13;;;;;;;18.14;58.68;96878.44;10454436;28;20098;-23
2022/05/10 22:41:26;;;;;;;4.13;3.40;;;;;;;18.10;58.63;96870.00;10453683;28;20182;-23
2022/05/10 22:46:27;;;;;;;3.67;3.35;;;;;;;18.07;58.40;96880.09;10455260;28;20307;-23
2022/05/10 22:51:27;;;;;;;5.28;3.80;;;;;;;18.06;58.50;96868.28;10455549;28;20450;-22
2022/05/10 22:56:27;;;;;;;3.90;3.50;;;;;;;17.94;58.56;96854.72;10455567;28;20325;-22
2022/05/10 23:01:28;;;;;;;5.00;4.45;;;;;;;18.15;61.43;96863.25;10455538;28;20351;-21
2022/05/10 23:06:28;;;;;;;4.72;4.15;;;;;;;18.33;65.27;96865.03;10453873;28;20102;-21
2022/05/10 23:11:29;;;;;;;4.10;3.67;;;;;;;18.30;59.64;96865.00;10453426;28;20208;-22
2022/05/10 23:16:29;;;;;;;3.83;3.50;;;;;;;18.15;58.77;96864.94;10484930;28;20045;-22
2022/05/10 23:21:30;;;;;;;4.00;3.60;;;;;;;18.10;58.81;96853.94;10495061;28;20349;-21
2022/05/10 23:26:31;;;;;;;4.28;3.28;;;;;;;18.06;58.37;96840.41;10489415;28;20032;-23
2022/05/10 23:31:31;;;;;;;3.80;3.40;;;;;;;18.04;58.49;96848.84;10493311;28;20523;-21
2022/05/10 23:36:32;;;;;;;3.57;3.20;;;;;;;18.02;58.48;96840.41;10453894;28;20033;-21
2022/05/10 23:41:32;;;;;;;3.63;3.33;;;;;;;18.04;58.57;96841.25;10452857;28;20145;-21
2022/05/10 23:46:42;;;;;;;5.32;3.88;;;;;;;18.21;61.80;96837.06;10452845;28;20558;-23
2022/05/10 23:51:48;;;;;;;4.50;4.10;;;;;;;18.32;62.81;96825.34;10452877;28;20108;-22
2022/05/10 23:56:48;;;;;;;4.05;3.20;;;;;;;18.15;59.78;96816.81;10479288;28;20059;-23
